Kezdőlap
METAR-TAF:

METAR-TAF

Repülőterek :

Baraboo Wisconsin Dells Airport

Baraboo-Wisconsin Dells, Wisconsin, Amerikai Egyesült Államok

földrajzi szélesség: 43-31-19N, földrajzi hosszúság: 089-46-15W, magasság: 298 m

Jelenlegi meteorológiai megfigyelések

A jelentés 28 perccel ezelõtt készült, 14:15 UTC
Nyugat-északnyugati szél 4 kt
Hőmérséklet -2°C
Páratartalom 54%
Légköri nyomás 1025 hPa
Látótávolság: 16.1 km
Borult 11000 lábon

METAR: KDLL 041415Z AUTO 29004KT 10SM OVC110 M02/M10 A3026 RMK AO2 T10181100

Idő: 08:43 (14:43 UTC)


TAF: hiányzik

Meteorológiai megfigyelések és előrejelzések több, mint 4000 repülőtéren (METAR és TAF jelentéseket).

A térképen piros és sárga pontok jelzik az elérhető meteorológiai állomásokat.

Mozgassa az egeret a pont fölött, hogy megjelenjen az állomás neve.

Azután kattintson az időjárási megfigyelések és előrejelzések megtekintéséhez.

A térkép megváltoztatása: kattintson a fekete keresztel jelölt zöld gombra ráközelítéshez, a vonallal jelölt zöld gombra távolításhoz, vagy a zöld nyilakra a szomszédos térképek eléréséhez.


METAR-TAF: